createdAt,value
2022-08-07T00:01:43.916Z,1.60
2022-08-07T00:04:06.040Z,1.52
2022-08-07T00:06:33.902Z,1.45
2022-08-07T00:09:17.099Z,1.83
2022-08-07T00:11:55.572Z,1.80
2022-08-07T00:14:25.525Z,1.75
2022-08-07T00:17:01.641Z,1.65
2022-08-07T00:20:01.604Z,2.13
2022-08-07T00:22:34.535Z,1.60
2022-08-07T00:25:15.824Z,1.65
2022-08-07T00:27:53.383Z,1.50
2022-08-07T00:30:26.772Z,1.63
2022-08-07T00:32:58.887Z,1.70
2022-08-07T00:35:26.483Z,1.52
2022-08-07T00:37:55.630Z,1.83
2022-08-07T00:40:39.523Z,1.70
2022-08-07T00:44:01.650Z,1.35
2022-08-07T00:46:02.085Z,2.00
2022-08-07T00:48:31.770Z,1.50
2022-08-07T00:51:00.214Z,1.80
2022-08-07T00:53:27.037Z,1.85
2022-08-07T00:56:13.732Z,1.83
2022-08-07T00:58:46.774Z,1.60
2022-08-07T01:01:15.209Z,1.63
2022-08-07T01:03:56.283Z,1.85
2022-08-07T01:06:28.685Z,1.85
2022-08-07T01:08:56.451Z,1.90
2022-08-07T01:12:09.179Z,1.70
2022-08-07T01:14:12.182Z,1.80
2022-08-07T01:16:43.012Z,1.98
2022-08-07T01:19:18.188Z,1.60
2022-08-07T01:21:48.457Z,1.90
2022-08-07T01:24:18.759Z,1.60
2022-08-07T01:26:52.708Z,1.70
2022-08-07T01:29:31.398Z,1.70
2022-08-07T01:32:01.248Z,1.80
2022-08-07T01:34:34.763Z,1.73
2022-08-07T01:37:11.446Z,1.67
2022-08-07T01:39:46.452Z,1.80
2022-08-07T01:42:38.096Z,1.75
2022-08-07T01:45:18.259Z,1.80
2022-08-07T01:48:18.555Z,1.88
2022-08-07T01:50:37.419Z,2.00
2022-08-07T01:53:08.851Z,2.10
2022-08-07T01:55:47.433Z,2.23
2022-08-07T01:58:28.953Z,1.88
2022-08-07T02:01:09.767Z,1.90
2022-08-07T02:03:54.466Z,1.80
2022-08-07T02:06:31.950Z,1.90
2022-08-07T02:09:04.667Z,2.10
2022-08-07T02:12:02.753Z,1.77
2022-08-07T02:14:40.943Z,1.70
2022-08-07T02:17:24.761Z,1.70
2022-08-07T02:20:05.435Z,1.98
2022-08-07T02:22:38.345Z,1.60
2022-08-07T02:25:13.844Z,1.70
2022-08-07T02:27:51.281Z,1.90
2022-08-07T02:30:20.334Z,2.10
2022-08-07T02:33:03.882Z,1.73
2022-08-07T02:36:30.256Z,1.63
2022-08-07T02:38:31.684Z,1.90
2022-08-07T02:41:01.107Z,2.25
2022-08-07T02:43:33.118Z,1.70
2022-08-07T02:46:02.848Z,1.93
2022-08-07T02:48:32.889Z,2.38
2022-08-07T02:51:07.149Z,1.50
2022-08-07T02:53:54.541Z,1.83
2022-08-07T02:56:22.810Z,1.77
2022-08-07T02:58:54.172Z,1.65
2022-08-07T03:01:36.560Z,1.70
2022-08-07T03:04:13.014Z,1.73
2022-08-07T03:06:46.137Z,1.80
2022-08-07T03:09:43.432Z,1.80
2022-08-07T03:12:05.715Z,1.83
2022-08-07T03:14:36.362Z,1.87
2022-08-07T03:17:04.521Z,1.80
2022-08-07T03:19:37.106Z,1.80
2022-08-07T03:22:07.459Z,1.63
2022-08-07T03:24:50.021Z,1.50
2022-08-07T03:27:30.393Z,1.80
2022-08-07T03:30:01.687Z,1.80
2022-08-07T03:32:34.400Z,1.70
2022-08-07T03:35:17.571Z,1.80
2022-08-07T03:38:04.772Z,1.60
2022-08-07T03:40:36.173Z,1.73
2022-08-07T03:43:13.762Z,1.60
2022-08-07T03:45:47.846Z,1.90
2022-08-07T03:48:19.709Z,1.80
2022-08-07T03:50:56.115Z,1.80
2022-08-07T03:54:04.003Z,1.60
2022-08-07T03:56:33.363Z,1.60
2022-08-07T03:59:09.918Z,1.80
2022-08-07T04:01:45.660Z,1.97
2022-08-07T04:04:18.115Z,1.50
2022-08-07T04:06:51.564Z,1.53
2022-08-07T04:09:23.002Z,1.67
2022-08-07T04:12:24.347Z,1.77
2022-08-07T04:14:45.898Z,1.70
2022-08-07T04:18:31.916Z,1.70
2022-08-07T04:20:02.862Z,1.80
2022-08-07T04:22:32.236Z,1.90
2022-08-07T04:25:03.725Z,1.70
2022-08-07T04:27:45.879Z,1.60
2022-08-07T04:30:21.399Z,1.63
2022-08-07T04:33:10.515Z,1.97
2022-08-07T04:35:50.398Z,1.37
2022-08-07T04:38:21.272Z,1.60
2022-08-07T04:40:52.591Z,1.70
2022-08-07T04:44:12.906Z,1.50
2022-08-07T04:46:34.509Z,1.70
2022-08-07T04:49:37.693Z,1.47
2022-08-07T04:52:09.221Z,1.57
2022-08-07T04:54:50.730Z,1.57
2022-08-07T04:58:10.890Z,1.57
2022-08-07T05:00:42.960Z,1.70
2022-08-07T05:03:59.843Z,1.60
2022-08-07T05:06:43.469Z,1.63
2022-08-07T05:09:45.574Z,1.50
2022-08-07T05:12:26.802Z,2.27
2022-08-07T05:15:23.280Z,1.80
2022-08-07T05:18:01.556Z,1.40
2022-08-07T05:20:42.907Z,1.43
2022-08-07T05:23:15.463Z,1.60
2022-08-07T05:26:10.911Z,1.70
2022-08-07T05:28:33.232Z,1.63
2022-08-07T05:31:00.259Z,1.67
2022-08-07T05:33:28.666Z,1.80
2022-08-07T05:35:56.295Z,1.73
2022-08-07T05:38:59.660Z,1.80
2022-08-07T05:41:14.416Z,1.52
2022-08-07T05:44:08.805Z,1.63
2022-08-07T05:46:33.956Z,1.60
2022-08-07T05:49:00.806Z,1.70
2022-08-07T05:51:40.096Z,1.67
2022-08-07T05:54:12.781Z,1.30
2022-08-07T05:56:54.741Z,1.60
2022-08-07T05:59:24.390Z,1.70
2022-08-07T06:01:56.903Z,1.65
2022-08-07T06:04:26.294Z,1.50
2022-08-07T06:07:04.412Z,1.40
2022-08-07T06:09:44.830Z,1.17
2022-08-07T06:12:21.118Z,1.23
2022-08-07T06:14:55.132Z,1.75
2022-08-07T06:17:30.610Z,1.25
2022-08-07T06:20:05.517Z,1.50
2022-08-07T06:22:40.045Z,1.25
2022-08-07T06:25:18.728Z,1.23
2022-08-07T06:28:01.222Z,1.20
2022-08-07T06:30:35.353Z,1.30
2022-08-07T06:33:09.705Z,1.40
2022-08-07T06:35:47.779Z,1.42
2022-08-07T06:38:30.340Z,2.00
2022-08-07T06:40:58.047Z,1.30
2022-08-07T06:43:25.543Z,1.38
2022-08-07T06:46:06.055Z,1.40
2022-08-07T06:48:44.548Z,1.20
2022-08-07T06:51:31.273Z,1.63
2022-08-07T06:55:29.550Z,1.65
2022-08-07T06:56:51.649Z,1.40
2022-08-07T07:00:12.382Z,1.73
2022-08-07T07:02:54.075Z,1.40
2022-08-07T07:06:03.651Z,1.20
2022-08-07T07:08:18.801Z,1.52
2022-08-07T07:10:56.960Z,1.20
2022-08-07T07:13:55.959Z,1.30
2022-08-07T07:16:23.344Z,1.45
2022-08-07T07:19:04.112Z,1.30
2022-08-07T07:22:04.774Z,1.20
2022-08-07T07:24:39.423Z,1.25
2022-08-07T07:27:10.322Z,1.20
2022-08-07T07:30:09.413Z,1.30
2022-08-07T07:32:29.050Z,0.95
2022-08-07T07:35:00.705Z,1.08
2022-08-07T07:37:47.354Z,1.40
2022-08-07T07:40:18.555Z,1.02
2022-08-07T07:42:50.902Z,1.42
2022-08-07T07:45:22.809Z,1.10
2022-08-07T07:48:11.076Z,1.20
2022-08-07T07:50:39.104Z,1.27
2022-08-07T07:53:20.578Z,1.00
2022-08-07T07:55:54.671Z,1.15
2022-08-07T07:58:27.400Z,1.23
2022-08-07T08:00:57.744Z,1.08
2022-08-07T08:04:10.121Z,1.10
2022-08-07T08:06:11.826Z,1.00
2022-08-07T08:08:41.920Z,0.90
2022-08-07T08:11:16.064Z,1.00
2022-08-07T08:13:54.505Z,0.90
2022-08-07T08:16:26.578Z,0.90
2022-08-07T08:18:56.907Z,0.90
2022-08-07T08:22:00.686Z,0.90
2022-08-07T08:24:48.190Z,0.80
2022-08-07T08:27:25.223Z,0.80
2022-08-07T08:30:08.843Z,0.82
2022-08-07T08:32:48.474Z,0.70
2022-08-07T08:35:24.663Z,1.02
2022-08-07T08:38:03.567Z,0.93
2022-08-07T08:40:37.793Z,2.03
2022-08-07T08:43:04.723Z,1.00
2022-08-07T08:45:59.490Z,0.82
2022-08-07T08:48:36.189Z,0.70
2022-08-07T08:51:26.009Z,0.80
2022-08-07T08:54:12.453Z,0.80
2022-08-07T08:56:47.231Z,1.00
2022-08-07T08:59:50.597Z,0.80
2022-08-07T09:02:52.533Z,0.85
2022-08-07T09:05:49.535Z,0.85
2022-08-07T09:08:36.443Z,0.70
2022-08-07T09:11:24.831Z,1.00
2022-08-07T09:14:13.046Z,0.80
2022-08-07T09:16:47.643Z,0.80
2022-08-07T09:19:53.676Z,0.68
2022-08-07T09:24:33.849Z,0.60
2022-08-07T09:25:53.506Z,0.75
2022-08-07T09:30:00.661Z,0.52
2022-08-07T09:31:38.347Z,0.75
2022-08-07T09:34:29.911Z,0.80
2022-08-07T09:37:02.324Z,0.80
2022-08-07T09:39:54.870Z,0.70
2022-08-07T09:42:41.298Z,0.80
2022-08-07T09:47:51.179Z,0.60
2022-08-07T09:48:11.568Z,0.70
2022-08-07T09:51:26.111Z,0.70
2022-08-07T09:54:02.318Z,0.70
2022-08-07T09:57:07.076Z,0.70
2022-08-07T10:00:00.583Z,0.80
2022-08-07T10:04:03.572Z,0.70
2022-08-07T10:06:24.512Z,1.25
2022-08-07T10:09:03.210Z,0.70
2022-08-07T10:12:02.692Z,0.50
2022-08-07T10:14:59.255Z,0.75
2022-08-07T10:17:33.721Z,0.75
2022-08-07T10:20:30.620Z,0.60
2022-08-07T10:24:06.734Z,0.60
2022-08-07T10:26:28.856Z,0.73
2022-08-07T10:29:10.031Z,0.60
2022-08-07T10:31:53.378Z,0.60
2022-08-07T10:34:58.343Z,0.60
2022-08-07T10:37:48.690Z,0.70
2022-08-07T10:40:30.029Z,0.60
2022-08-07T10:43:19.436Z,0.77
2022-08-07T10:46:00.229Z,0.70
2022-08-07T10:48:38.070Z,0.60
2022-08-07T10:51:57.662Z,0.80
2022-08-07T10:54:15.400Z,0.70
2022-08-07T10:56:50.491Z,0.60
2022-08-07T10:59:24.445Z,0.70
2022-08-07T11:02:04.715Z,0.60
2022-08-07T11:04:57.863Z,0.80
2022-08-07T11:07:58.440Z,0.60
2022-08-07T11:11:06.225Z,0.68
2022-08-07T11:14:41.943Z,0.77
2022-08-07T11:16:45.897Z,0.75
2022-08-07T11:19:27.212Z,0.70
2022-08-07T11:22:03.488Z,0.60
2022-08-07T11:24:46.054Z,0.60
2022-08-07T11:28:01.713Z,0.60
2022-08-07T11:30:18.222Z,0.80
2022-08-07T11:32:49.728Z,0.82
2022-08-07T11:35:25.211Z,0.77
2022-08-07T11:38:17.565Z,0.70
2022-08-07T11:40:56.380Z,0.98
2022-08-07T11:44:11.465Z,0.68
2022-08-07T11:46:49.246Z,0.90
2022-08-07T11:50:11.542Z,0.70
2022-08-07T11:52:47.960Z,0.70
2022-08-07T11:56:25.618Z,0.70
2022-08-07T11:58:50.091Z,0.80
2022-08-07T12:01:59.336Z,0.68
2022-08-07T12:04:42.937Z,0.70
2022-08-07T12:07:39.872Z,0.60
2022-08-07T12:10:17.947Z,0.60
2022-08-07T12:12:51.605Z,0.90
2022-08-07T12:15:35.680Z,0.60
2022-08-07T12:18:15.992Z,0.57
2022-08-07T12:20:57.991Z,0.60
2022-08-07T12:24:05.981Z,0.70
2022-08-07T12:26:29.905Z,0.70
2022-08-07T12:29:09.362Z,0.70
2022-08-07T12:32:01.493Z,0.80
2022-08-07T12:34:30.451Z,0.60
2022-08-07T12:36:57.155Z,0.70
2022-08-07T12:39:42.856Z,0.85
2022-08-07T12:42:13.166Z,0.77
2022-08-07T12:44:43.010Z,0.77
2022-08-07T12:47:31.091Z,0.60
2022-08-07T12:50:38.200Z,0.55
2022-08-07T12:53:18.590Z,0.85
2022-08-07T12:56:10.522Z,0.70
2022-08-07T12:58:43.903Z,0.63
2022-08-07T13:02:09.935Z,0.68
2022-08-07T13:06:02.611Z,0.50
2022-08-07T13:08:34.078Z,0.65
2022-08-07T13:11:18.259Z,0.73
2022-08-07T13:13:59.687Z,0.70
2022-08-07T13:16:31.302Z,0.60
2022-08-07T13:19:21.695Z,0.60
2022-08-07T13:22:36.528Z,0.65
2022-08-07T13:25:04.419Z,0.57
2022-08-07T13:28:12.531Z,1.00
2022-08-07T13:30:39.616Z,0.68
2022-08-07T13:33:16.363Z,0.60
2022-08-07T13:36:05.734Z,0.70
2022-08-07T13:38:39.298Z,0.80
2022-08-07T13:41:33.165Z,0.68
2022-08-07T13:44:05.132Z,0.70
2022-08-07T13:46:48.794Z,0.50
2022-08-07T13:50:33.595Z,0.80
2022-08-07T13:52:31.743Z,0.90
2022-08-07T13:54:55.841Z,0.70
2022-08-07T13:57:25.920Z,0.70
2022-08-07T14:00:01.388Z,0.73
2022-08-07T14:02:29.700Z,0.70
2022-08-07T14:05:02.072Z,0.70
2022-08-07T14:07:31.131Z,0.70
2022-08-07T14:10:21.813Z,0.60
2022-08-07T14:12:58.730Z,0.80
2022-08-07T14:15:36.227Z,0.82
2022-08-07T14:18:27.086Z,0.90
2022-08-07T14:21:07.901Z,0.82
2022-08-07T14:24:01.697Z,0.70
2022-08-07T14:26:30.596Z,0.50
2022-08-07T14:29:08.536Z,0.70
2022-08-07T14:31:42.887Z,0.75
2022-08-07T14:34:27.251Z,0.80
2022-08-07T14:36:56.638Z,0.60
2022-08-07T14:40:16.470Z,0.60
2022-08-07T14:45:21.471Z,0.70
2022-08-07T14:47:48.816Z,0.50
2022-08-07T14:50:19.101Z,0.60
2022-08-07T14:52:47.782Z,0.60
2022-08-07T14:58:04.916Z,0.80
2022-08-07T15:00:34.558Z,0.70
2022-08-07T15:03:19.361Z,0.70
2022-08-07T15:05:54.602Z,0.77
2022-08-07T15:08:49.828Z,0.60
2022-08-07T15:11:54.113Z,0.77
2022-08-07T15:14:10.005Z,0.70
2022-08-07T15:16:55.108Z,0.80
2022-08-07T15:22:29.558Z,0.60
2022-08-07T15:25:17.270Z,0.60
2022-08-07T15:30:34.858Z,0.60
2022-08-07T15:33:03.935Z,0.57
2022-08-07T15:38:51.153Z,0.60
2022-08-07T15:44:15.178Z,0.80
2022-08-07T15:46:51.986Z,0.80
2022-08-07T15:49:19.524Z,0.60
2022-08-07T15:54:33.967Z,0.70
2022-08-07T15:57:01.534Z,0.70
2022-08-07T15:59:39.071Z,0.70
2022-08-07T16:02:07.207Z,0.70
2022-08-07T16:04:36.047Z,0.70
2022-08-07T16:08:28.961Z,1.30
2022-08-07T16:09:53.989Z,1.10
2022-08-07T16:12:32.128Z,0.75
2022-08-07T16:15:56.397Z,0.80
2022-08-07T16:18:49.602Z,0.70
2022-08-07T16:22:01.304Z,0.88
2022-08-07T16:24:34.925Z,0.75
2022-08-07T16:27:20.916Z,0.50
2022-08-07T16:30:29.436Z,0.77
2022-08-07T16:34:02.279Z,0.50
2022-08-07T16:36:30.984Z,0.60
2022-08-07T16:39:21.061Z,0.70
2022-08-07T16:42:18.047Z,0.60
2022-08-07T16:45:14.902Z,0.60
2022-08-07T16:47:52.938Z,0.60
2022-08-07T16:51:13.375Z,0.70
2022-08-07T16:54:06.576Z,0.65
2022-08-07T16:56:54.161Z,0.70
2022-08-07T16:59:52.071Z,0.70
2022-08-07T17:02:54.314Z,0.90
2022-08-07T17:06:18.900Z,0.95
2022-08-07T17:08:10.870Z,0.98
2022-08-07T17:10:54.815Z,0.70
2022-08-07T17:13:38.888Z,0.60
2022-08-07T17:16:21.655Z,0.90
2022-08-07T17:18:51.585Z,0.75
2022-08-07T17:21:51.386Z,0.60
2022-08-07T17:24:23.513Z,0.60
2022-08-07T17:26:59.206Z,0.60
2022-08-07T17:30:14.530Z,0.70
2022-08-07T17:32:49.691Z,0.90
2022-08-07T17:35:51.214Z,0.60
2022-08-07T17:38:33.607Z,1.10
2022-08-07T17:42:00.589Z,0.73
2022-08-07T17:44:07.382Z,0.60
2022-08-07T17:46:54.431Z,0.70
2022-08-07T17:49:44.954Z,0.70
2022-08-07T17:52:32.558Z,0.68
2022-08-07T17:55:04.427Z,0.77
2022-08-07T17:57:58.560Z,0.80
2022-08-07T18:00:34.553Z,0.82
2022-08-07T18:03:21.005Z,0.95
2022-08-07T18:06:02.126Z,0.80
2022-08-07T18:08:33.081Z,0.80
2022-08-07T18:12:18.082Z,0.70
2022-08-07T18:13:54.710Z,0.90
2022-08-07T18:16:57.543Z,0.95
2022-08-07T18:21:12.803Z,0.93
2022-08-07T18:22:36.572Z,0.60
2022-08-07T18:25:24.197Z,0.70
2022-08-07T18:27:53.938Z,0.68
2022-08-07T18:30:32.897Z,0.80
2022-08-07T18:33:55.260Z,0.85
2022-08-07T18:37:09.350Z,0.70
2022-08-07T18:40:06.519Z,0.70
2022-08-07T18:42:44.663Z,0.95
2022-08-07T18:45:43.113Z,0.82
2022-08-07T18:48:09.014Z,0.90
2022-08-07T18:50:48.319Z,0.73
2022-08-07T18:53:39.843Z,0.85
2022-08-07T18:56:37.673Z,0.70
2022-08-07T18:59:58.237Z,0.95
2022-08-07T19:02:36.424Z,0.95
2022-08-07T19:05:20.524Z,0.93
2022-08-07T19:08:07.167Z,0.90
2022-08-07T19:10:51.672Z,1.00
2022-08-07T19:13:50.102Z,0.95
2022-08-07T19:17:06.548Z,0.88
2022-08-07T19:19:46.010Z,1.00
2022-08-07T19:22:30.252Z,0.82
2022-08-07T19:24:58.447Z,0.98
2022-08-07T19:28:29.327Z,0.90
2022-08-07T19:31:03.997Z,0.82
2022-08-07T19:33:12.817Z,0.73
2022-08-07T19:35:40.280Z,0.80
2022-08-07T19:38:15.139Z,0.95
2022-08-07T19:40:49.406Z,1.13
2022-08-07T19:43:43.769Z,0.90
2022-08-07T19:46:17.763Z,0.90
2022-08-07T19:48:53.939Z,0.95
2022-08-07T19:51:50.994Z,1.00
2022-08-07T19:54:35.360Z,0.82
2022-08-07T19:58:03.045Z,1.02
2022-08-07T19:59:42.792Z,0.80
2022-08-07T20:02:19.173Z,1.05
2022-08-07T20:04:48.904Z,0.90
2022-08-07T20:07:23.700Z,1.08
2022-08-07T20:10:35.351Z,0.90
2022-08-07T20:12:43.844Z,0.90
2022-08-07T20:15:19.020Z,0.70
2022-08-07T20:18:01.390Z,0.90
2022-08-07T20:20:30.368Z,0.80
2022-08-07T20:23:00.212Z,1.10
2022-08-07T20:25:28.134Z,1.00
2022-08-07T20:28:03.505Z,1.00
2022-08-07T20:30:33.415Z,0.90
2022-08-07T20:33:00.393Z,0.80
2022-08-07T20:35:36.528Z,1.20
2022-08-07T20:38:21.330Z,1.02
2022-08-07T20:40:53.439Z,1.17
2022-08-07T20:43:25.111Z,0.90
2022-08-07T20:46:28.154Z,1.23
2022-08-07T20:49:55.130Z,1.30
2022-08-07T20:51:31.174Z,1.15
2022-08-07T20:54:08.649Z,1.20
2022-08-07T20:56:45.936Z,1.05
2022-08-07T21:00:04.656Z,1.30
2022-08-07T21:02:05.545Z,1.10
2022-08-07T21:04:49.740Z,1.00
2022-08-07T21:07:23.473Z,1.20
2022-08-07T21:09:59.091Z,1.40
2022-08-07T21:12:31.161Z,1.25
2022-08-07T21:14:59.521Z,1.20
2022-08-07T21:18:06.533Z,1.40
2022-08-07T21:20:18.868Z,1.00
2022-08-07T21:22:54.700Z,1.27
2022-08-07T21:26:01.492Z,1.30
2022-08-07T21:28:55.805Z,1.00
2022-08-07T21:32:41.990Z,1.20
2022-08-07T21:34:46.209Z,1.15
2022-08-07T21:37:57.952Z,1.23
2022-08-07T21:40:48.060Z,1.40
2022-08-07T21:43:56.705Z,0.98
2022-08-07T21:46:47.524Z,1.38
2022-08-07T21:49:40.656Z,1.30
2022-08-07T21:52:57.249Z,1.17
2022-08-07T21:55:30.265Z,1.15
2022-08-07T21:58:30.082Z,1.20
2022-08-07T22:00:59.881Z,1.27
2022-08-07T22:03:32.054Z,0.90
2022-08-07T22:06:02.240Z,1.00
2022-08-07T22:08:43.134Z,1.23
2022-08-07T22:11:11.150Z,1.50
2022-08-07T22:13:52.990Z,1.25
2022-08-07T22:16:44.321Z,1.58
2022-08-07T22:19:33.213Z,1.58
2022-08-07T22:22:29.343Z,1.30
2022-08-07T22:25:08.398Z,2.00
2022-08-07T22:28:07.858Z,1.48
2022-08-07T22:31:08.578Z,1.48
2022-08-07T22:33:56.474Z,1.52
2022-08-07T22:36:42.707Z,1.45
2022-08-07T22:39:23.830Z,1.65
2022-08-07T22:42:03.135Z,1.60
2022-08-07T22:44:58.725Z,1.40
2022-08-07T22:47:44.081Z,1.55
2022-08-07T22:50:33.285Z,1.55
2022-08-07T22:54:05.430Z,1.48
2022-08-07T22:56:09.754Z,1.50
2022-08-07T22:59:09.912Z,1.90
2022-08-07T23:01:49.642Z,1.75
2022-08-07T23:06:15.772Z,1.30
2022-08-07T23:07:53.870Z,1.40
2022-08-07T23:10:36.433Z,1.33
2022-08-07T23:13:06.455Z,1.40
2022-08-07T23:16:06.093Z,1.40
2022-08-07T23:19:11.084Z,1.73
2022-08-07T23:21:52.644Z,1.25
2022-08-07T23:24:38.505Z,1.90
2022-08-07T23:27:16.617Z,1.63
2022-08-07T23:30:39.500Z,1.50
2022-08-07T23:34:34.700Z,2.30
2022-08-07T23:36:28.847Z,1.38
2022-08-07T23:39:12.649Z,1.83
2022-08-07T23:42:07.213Z,1.42
2022-08-07T23:44:41.088Z,1.23
2022-08-07T23:47:29.772Z,1.38
2022-08-07T23:49:59.558Z,1.40
2022-08-07T23:53:11.679Z,1.65
2022-08-07T23:55:59.849Z,1.42
2022-08-07T23:58:38.429Z,1.70
